Joan's Ark — WDF6566 — position and weather

sailwx.info

Track history (hours):
 
Tides and Currents Weather Stations Pressure Air Temp Water Temp Dewpoint Dewpoint Depression Visibility Wind Speed Wind Dir Waves Ship Positions

Joan's Ark

Owner: Eastwinds Company, Virginia Beach, VA. More information available from US FCC via Universal Licensing System and Coast Guard Vessel Documentation Center.

Last reported at 2017-Mar-10 20:33 UTC. Time now 2017-Mar-27 12:44 UTC.
Position N 26°59' W 080°03'.
Warning: this ship's position is 16 days out of date.

Length 35 m; draft 1.8 m.

Type: Pleasure craft. MMSI: 366913000.

Date/timePositionNaut miles runAvg speedWind from/ knotsBaromVisibWave heightAir tempDewpointWater temp
2017-Mar-10 20:33N 26°59' W 080°03'4320.5
2017-Mar-10 18:28N 26°16' W 080°02'1011.3
2017-Mar-10 17:34N 26°07' W 080°08'0 0.3
2017-Mar-10 16:33N 26°07' W 080°08'0 0.0
2017-Mar-08 23:33N 26°07' W 080°08'0 0.0
2017-Mar-08 22:33N 26°07' W 080°08'0 0.0
2017-Mar-08 21:33N 26°07' W 080°08'0 0.0
2017-Mar-08 20:31N 26°07' W 080°08'0 0.0
2017-Mar-08 19:33N 26°07' W 080°08'1 0.7
2017-Mar-08 18:33N 26°07' W 080°08'5 4.6
2017-Mar-08 17:32N 26°11' W 080°06'4 4.0
2017-Mar-08 16:33N 26°15' W 080°05'4 3.9
2017-Mar-08 15:33N 26°19' W 080°05'1 0.1
2017-Mar-08 00:08N 26°21' W 080°05'3 4.5
2017-Mar-07 23:32N 26°23' W 080°04'29 5.3
2017-Mar-07 18:06N 26°52' W 080°04'4 6.7
2017-Mar-07 17:33N 26°55' W 080°05'  
Track history (hours):
 
Tides and Currents Weather Stations Pressure Air Temp Water Temp Dewpoint Dewpoint Depression Visibility Wind Speed Wind Dir Waves Ship Positions

Joan's Ark

Owner: Eastwinds Company, Virginia Beach, VA. More information available from US FCC via Universal Licensing System and Coast Guard Vessel Documentation Center.

Last reported at 2017-Mar-10 20:33 UTC. Time now 2017-Mar-27 12:44 UTC.
Position N 26°59' W 080°03'.
Warning: this ship's position is 16 days out of date.

Length 35 m; draft 1.8 m.

Type: Pleasure craft. MMSI: 366913000.

Date/timePositionNaut miles runAvg speedWind from/ knotsBaromVisibWave heightAir tempDewpointWater temp
2017-Mar-10 20:33N 26°59' W 080°03'4320.5
2017-Mar-10 18:28N 26°16' W 080°02'1011.3
2017-Mar-10 17:34N 26°07' W 080°08'0 0.3
2017-Mar-10 16:33N 26°07' W 080°08'0 0.0
2017-Mar-08 23:33N 26°07' W 080°08'0 0.0
2017-Mar-08 22:33N 26°07' W 080°08'0 0.0
2017-Mar-08 21:33N 26°07' W 080°08'0 0.0
2017-Mar-08 20:31N 26°07' W 080°08'0 0.0
2017-Mar-08 19:33N 26°07' W 080°08'1 0.7
2017-Mar-08 18:33N 26°07' W 080°08'5 4.6
2017-Mar-08 17:32N 26°11' W 080°06'4 4.0
2017-Mar-08 16:33N 26°15' W 080°05'4 3.9
2017-Mar-08 15:33N 26°19' W 080°05'1 0.1
2017-Mar-08 00:08N 26°21' W 080°05'3 4.5
2017-Mar-07 23:32N 26°23' W 080°04'29 5.3
2017-Mar-07 18:06N 26°52' W 080°04'4 6.7
2017-Mar-07 17:33N 26°55' W 080°05'  

Dump ship's entire track history